Time;durP1;ratioP1;P1;durP2;ratioP2;P2;SDS_P1;SDS_P2;PMS_P1;PMS_P2;Temp;Humidity;BMP_temperature;BMP_pressure;BME280_temperature;BME280_humidity;BME280_pressure;Samples;Min_cycle;Max_cycle;Signal;HPM_P1;HPM_P2
2023/07/15 00:01:40;;;;;;;3.63;2.37;;;21.30;97.40;;;;;;500695;237;28800;-80
2023/07/15 00:03:41;;;;;;;3.33;2.47;;;21.30;97.30;;;;;;500722;237;28759;-81
2023/07/15 00:05:43;;;;;;;3.10;2.13;;;21.30;97.40;;;;;;500719;237;28789;-81
2023/07/15 00:07:44;;;;;;;4.10;2.17;;;21.30;97.50;;;;;;500729;237;28759;-81
2023/07/15 00:09:46;;;;;;;3.10;2.07;;;21.30;97.30;;;;;;500686;237;28873;-80
2023/07/15 00:11:46;;;;;;;2.50;1.80;;;21.30;97.30;;;;;;500713;237;28864;-80
2023/07/15 00:13:48;;;;;;;2.77;2.43;;;21.20;97.20;;;;;;500725;237;28770;-82
2023/07/15 00:15:50;;;;;;;4.23;2.17;;;21.20;97.30;;;;;;500704;237;28869;-81
2023/07/15 00:17:50;;;;;;;2.80;2.10;;;21.20;97.20;;;;;;500657;237;29301;-81
2023/07/15 00:19:51;;;;;;;3.07;2.37;;;21.20;97.20;;;;;;500726;237;29261;-80
2023/07/15 00:21:53;;;;;;;3.90;2.33;;;21.20;97.10;;;;;;500753;237;29305;-81
2023/07/15 00:23:55;;;;;;;2.70;2.37;;;21.20;97.30;;;;;;500717;237;28768;-81
2023/07/15 00:25:55;;;;;;;2.87;2.00;;;21.10;97.20;;;;;;500638;237;28872;-81
2023/07/15 00:27:56;;;;;;;1.97;1.73;;;21.10;97.40;;;;;;500654;237;28849;-81
2023/07/15 00:29:58;;;;;;;4.60;2.03;;;21.00;97.20;;;;;;500701;237;28833;-81
2023/07/15 00:32:03;;;;;;;4.43;2.20;;;21.00;97.30;;;;;;500693;237;28876;-77
2023/07/15 00:34:00;;;;;;;2.73;2.43;;;21.00;97.70;;;;;;500656;237;28835;-80
2023/07/15 00:36:01;;;;;;;2.13;1.93;;;20.90;97.50;;;;;;500686;237;28887;-80
2023/07/15 00:38:03;;;;;;;2.20;2.10;;;20.90;97.50;;;;;;500689;237;28833;-81
2023/07/15 00:40:04;;;;;;;4.43;2.33;;;20.80;97.60;;;;;;500698;237;28753;-81
2023/07/15 00:42:05;;;;;;;2.83;2.07;;;20.80;97.90;;;;;;500676;237;29241;-81
2023/07/15 00:44:14;;;;;;;2.30;2.10;;;20.70;98.20;;;;;;500684;237;29215;-81
2023/07/15 00:46:08;;;;;;;4.70;2.40;;;20.70;97.80;;;;;;500598;237;29314;-81
2023/07/15 00:48:09;;;;;;;2.13;2.03;;;20.70;98.20;;;;;;500714;237;29481;-79
2023/07/15 00:50:10;;;;;;;3.00;2.63;;;20.70;97.90;;;;;;500717;237;28762;-81
2023/07/15 00:52:11;;;;;;;2.80;2.50;;;20.70;97.90;;;;;;500639;237;28918;-82
2023/07/15 00:54:13;;;;;;;3.87;2.40;;;20.70;97.90;;;;;;500647;237;28830;-80
2023/07/15 00:56:14;;;;;;;2.77;2.50;;;20.70;98.00;;;;;;500665;237;28798;-80
2023/07/15 00:58:15;;;;;;;2.63;2.40;;;20.60;98.50;;;;;;500725;237;28816;-80
2023/07/15 01:00:18;;;;;;;2.57;2.23;;;20.60;97.90;;;;;;500716;237;28763;-82
2023/07/15 01:02:18;;;;;;;4.13;2.37;;;20.60;98.10;;;;;;500703;237;28805;-80
2023/07/15 01:04:19;;;;;;;4.60;3.07;;;20.50;98.30;;;;;;500692;237;28905;-81
2023/07/15 01:06:20;;;;;;;4.50;3.47;;;20.50;98.20;;;;;;500701;237;28812;-82
2023/07/15 01:08:21;;;;;;;3.43;3.10;;;20.50;98.50;;;;;;500707;237;29269;-79
2023/07/15 01:10:23;;;;;;;3.67;2.60;;;20.40;98.30;;;;;;500674;237;29204;-81
2023/07/15 01:12:24;;;;;;;3.43;3.10;;;20.40;98.30;;;;;;500662;237;29263;-80
2023/07/15 01:14:25;;;;;;;5.50;3.20;;;20.40;98.50;;;;;;500667;237;28847;-82
2023/07/15 01:16:28;;;;;;;4.83;3.20;;;20.20;99.00;;;;;;500675;237;28764;-82
2023/07/15 01:18:28;;;;;;;5.80;3.50;;;20.20;99.10;;;;;;500720;237;28917;-79
2023/07/15 01:20:29;;;;;;;4.23;3.40;;;20.10;99.40;;;;;;500678;237;28890;-81
2023/07/15 01:22:30;;;;;;;7.57;4.10;;;20.20;98.90;;;;;;500673;237;28797;-80
2023/07/15 01:24:32;;;;;;;6.83;4.57;;;20.10;99.30;;;;;;500683;237;28823;-80
2023/07/15 01:26:33;;;;;;;5.20;3.50;;;20.20;98.80;;;;;;500705;237;28790;-80
2023/07/15 01:28:36;;;;;;;7.30;4.63;;;20.10;99.40;;;;;;500686;237;28908;-79
2023/07/15 01:30:35;;;;;;;7.00;4.50;;;20.10;99.10;;;;;;500644;237;28852;-81
2023/07/15 01:32:36;;;;;;;5.50;4.00;;;20.10;99.40;;;;;;500611;237;29376;-80
2023/07/15 01:34:38;;;;;;;9.20;4.37;;;20.10;99.30;;;;;;500731;237;29456;-80
2023/07/15 01:36:39;;;;;;;5.50;4.03;;;20.00;99.00;;;;;;500747;237;29287;-79
2023/07/15 01:38:40;;;;;;;6.40;4.40;;;20.00;99.20;;;;;;500727;237;28793;-80
2023/07/15 01:40:42;;;;;;;4.03;3.30;;;20.00;99.90;;;;;;500668;237;28784;-80
2023/07/15 01:42:43;;;;;;;4.87;3.10;;;19.90;99.80;;;;;;500689;237;28802;-81
2023/07/15 01:44:44;;;;;;;3.80;2.70;;;19.90;99.90;;;;;;500719;237;28786;-80
2023/07/15 01:46:45;;;;;;;3.30;2.73;;;19.90;99.90;;;;;;500696;237;28831;-81
2023/07/15 01:48:48;;;;;;;2.83;2.40;;;19.90;99.90;;;;;;500671;237;28880;-82
2023/07/15 01:50:48;;;;;;;3.00;2.50;;;19.80;99.90;;;;;;500652;237;28775;-82
2023/07/15 01:52:49;;;;;;;3.93;2.43;;;19.80;99.90;;;;;;500669;237;28801;-80
2023/07/15 01:54:50;;;;;;;2.90;2.43;;;19.80;99.90;;;;;;500687;237;28893;-80
2023/07/15 01:56:52;;;;;;;5.50;2.97;;;19.80;99.90;;;;;;500676;237;29221;-80
2023/07/15 01:58:53;;;;;;;2.23;2.03;;;19.70;99.90;;;;;;500689;237;29394;-80
2023/07/15 02:00:54;;;;;;;3.90;2.67;;;19.80;99.90;;;;;;500690;237;29346;-81
2023/07/15 02:02:55;;;;;;;4.00;2.57;;;19.80;99.90;;;;;;500707;237;29336;-79
2023/07/15 02:04:57;;;;;;;3.10;2.17;;;19.80;99.90;;;;;;500719;237;28790;-78
2023/07/15 02:06:58;;;;;;;2.50;2.30;;;19.80;99.90;;;;;;500717;237;28839;-81
2023/07/15 02:08:59;;;;;;;2.53;2.23;;;19.80;99.90;;;;;;500718;236;28882;-81
2023/07/15 02:11:00;;;;;;;2.60;2.40;;;19.80;99.90;;;;;;500668;237;28925;-82
2023/07/15 02:13:02;;;;;;;2.77;2.07;;;19.80;99.90;;;;;;500713;237;28794;-79
2023/07/15 02:15:03;;;;;;;3.70;2.30;;;19.80;99.90;;;;;;500689;237;28807;-79
2023/07/15 02:17:04;;;;;;;7.30;2.27;;;19.80;99.90;;;;;;500687;237;28768;-81
2023/07/15 02:19:06;;;;;;;2.53;2.33;;;19.80;99.90;;;;;;500682;237;28857;-81
2023/07/15 02:21:07;;;;;;;3.30;2.63;;;19.80;99.90;;;;;;500676;237;29399;-81
2023/07/15 02:23:08;;;;;;;3.53;2.67;;;19.80;99.90;;;;;;500708;237;29324;-80
2023/07/15 02:25:09;;;;;;;2.50;1.90;;;19.80;99.90;;;;;;500668;237;29361;-79
2023/07/15 02:27:11;;;;;;;2.17;1.97;;;19.80;99.90;;;;;;500654;237;29404;-81
2023/07/15 02:29:13;;;;;;;3.10;1.90;;;19.90;99.90;;;;;;500663;237;28812;-81
2023/07/15 02:31:13;;;;;;;3.00;2.00;;;19.80;99.90;;;;;;500648;237;28798;-83
2023/07/15 02:33:14;;;;;;;2.60;2.40;;;19.90;99.90;;;;;;500667;237;28841;-82
2023/07/15 02:35:15;;;;;;;2.20;2.03;;;19.90;99.90;;;;;;500690;237;28789;-79
2023/07/15 02:37:17;;;;;;;2.10;1.90;;;19.90;99.90;;;;;;500691;237;28757;-81
2023/07/15 02:39:18;;;;;;;2.40;2.20;;;19.80;99.90;;;;;;500670;237;28807;-80
2023/07/15 02:41:19;;;;;;;2.37;2.17;;;19.80;99.90;;;;;;500689;237;28799;-77
2023/07/15 02:43:20;;;;;;;2.77;2.20;;;19.90;99.90;;;;;;500711;237;28848;-82
2023/07/15 02:45:22;;;;;;;4.07;2.37;;;19.90;99.90;;;;;;500599;237;28824;-81
2023/07/15 02:47:23;;;;;;;2.53;2.33;;;19.90;99.90;;;;;;500613;237;29248;-81
2023/07/15 02:49:24;;;;;;;3.90;2.37;;;19.90;99.90;;;;;;500585;237;29367;-80
2023/07/15 02:51:25;;;;;;;3.80;2.47;;;19.90;99.90;;;;;;500694;237;29326;-79
2023/07/15 02:53:27;;;;;;;3.37;2.90;;;19.90;99.90;;;;;;500671;237;28767;-80
2023/07/15 02:55:28;;;;;;;2.57;2.37;;;20.00;99.90;;;;;;500624;237;28801;-81
2023/07/15 02:57:29;;;;;;;2.40;2.20;;;20.00;99.90;;;;;;500625;237;28821;-81
2023/07/15 02:59:33;;;;;;;2.60;2.40;;;20.00;99.90;;;;;;500635;237;28804;-78
2023/07/15 03:01:32;;;;;;;2.17;1.97;;;20.10;99.90;;;;;;500758;237;28812;-81
2023/07/15 03:03:33;;;;;;;4.00;2.23;;;20.00;99.90;;;;;;500726;237;28856;-82
2023/07/15 03:05:34;;;;;;;3.37;2.47;;;20.00;99.90;;;;;;500701;237;28809;-79
2023/07/15 03:07:35;;;;;;;2.40;2.20;;;19.90;99.90;;;;;;500696;237;28757;-81
2023/07/15 03:09:37;;;;;;;2.37;2.10;;;19.90;99.90;;;;;;500680;237;28805;-81
2023/07/15 03:11:38;;;;;;;2.90;2.10;;;19.80;99.90;;;;;;500730;237;29392;-80
2023/07/15 03:13:39;;;;;;;2.70;2.50;;;19.90;99.90;;;;;;500687;237;29356;-81
2023/07/15 03:15:40;;;;;;;3.50;2.50;;;19.90;99.90;;;;;;500692;237;29280;-80
2023/07/15 03:17:42;;;;;;;4.03;2.57;;;19.90;99.90;;;;;;500700;237;29212;-81
2023/07/15 03:19:43;;;;;;;4.63;2.60;;;19.80;99.90;;;;;;500515;237;28792;-80
2023/07/15 03:21:44;;;;;;;3.60;2.30;;;19.70;99.90;;;;;;500756;237;28904;-79
2023/07/15 03:23:45;;;;;;;2.80;2.60;;;19.80;99.90;;;;;;500717;237;28790;-82
2023/07/15 03:25:47;;;;;;;2.60;2.40;;;19.80;99.90;;;;;;500719;237;28815;-81
2023/07/15 03:27:48;;;;;;;2.80;2.60;;;19.80;99.90;;;;;;500719;237;28768;-81
2023/07/15 03:29:50;;;;;;;4.93;2.50;;;19.80;99.90;;;;;;500713;237;28827;-80
2023/07/15 03:31:50;;;;;;;2.67;2.43;;;19.80;99.90;;;;;;500730;237;29156;-79
2023/07/15 03:33:53;;;;;;;2.73;2.53;;;19.80;99.90;;;;;;500736;237;28871;-81
2023/07/15 03:35:53;;;;;;;3.10;2.83;;;19.80;99.90;;;;;;500709;237;28795;-80
2023/07/15 03:37:54;;;;;;;4.30;2.73;;;19.70;99.90;;;;;;500719;237;29228;-78
2023/07/15 03:39:56;;;;;;;5.37;2.57;;;19.70;99.90;;;;;;500728;237;29261;-79
2023/07/15 03:41:57;;;;;;;2.50;2.30;;;19.80;99.90;;;;;;500743;237;29402;-81
2023/07/15 03:43:58;;;;;;;2.80;2.60;;;19.80;99.90;;;;;;500734;237;28821;-82
2023/07/15 03:45:59;;;;;;;3.57;2.60;;;19.80;99.90;;;;;;500722;237;28798;-81
2023/07/15 03:48:00;;;;;;;3.00;2.63;;;19.80;99.90;;;;;;500691;237;28837;-83
2023/07/15 03:50:02;;;;;;;3.33;2.80;;;19.80;99.90;;;;;;500623;237;28798;-81
2023/07/15 03:52:03;;;;;;;2.87;2.57;;;19.80;99.90;;;;;;500690;237;28834;-81
2023/07/15 03:54:05;;;;;;;3.63;2.67;;;19.80;99.90;;;;;;500692;237;28772;-80
2023/07/15 03:56:05;;;;;;;2.83;2.63;;;19.90;99.90;;;;;;500672;237;28831;-80
2023/07/15 03:58:07;;;;;;;3.73;2.60;;;19.80;99.90;;;;;;500679;237;28756;-82
2023/07/15 04:00:17;;;;;;;2.50;2.30;;;19.90;99.90;;;;;;500704;237;28888;-80
2023/07/15 04:02:09;;;;;;;3.33;2.80;;;19.90;99.90;;;;;;500768;237;29285;-79
2023/07/15 04:04:11;;;;;;;4.33;2.80;;;19.90;99.90;;;;;;500699;237;29239;-80
2023/07/15 04:06:12;;;;;;;2.73;2.50;;;19.80;99.90;;;;;;500681;237;29261;-80
2023/07/15 04:08:13;;;;;;;4.60;2.37;;;19.80;99.90;;;;;;500631;237;29234;-81
2023/07/15 04:10:16;;;;;;;3.67;2.47;;;19.80;99.90;;;;;;500700;237;28901;-81
2023/07/15 04:12:15;;;;;;;5.13;2.67;;;19.80;99.90;;;;;;500646;237;28814;-80
2023/07/15 04:14:17;;;;;;;5.80;2.87;;;19.90;99.90;;;;;;500630;237;28856;-80
2023/07/15 04:16:18;;;;;;;2.37;2.20;;;19.90;99.90;;;;;;500681;237;28799;-81
2023/07/15 04:18:19;;;;;;;3.20;2.90;;;20.10;99.90;;;;;;500722;237;28808;-78
2023/07/15 04:20:21;;;;;;;2.90;2.57;;;20.20;99.90;;;;;;500722;237;29237;-80
2023/07/15 04:22:22;;;;;;;4.33;3.00;;;20.30;99.90;;;;;;500626;237;29259;-80
2023/07/15 04:24:23;;;;;;;6.47;2.97;;;20.40;99.90;;;;;;500655;237;29314;-82
2023/07/15 04:26:24;;;;;;;4.17;2.70;;;20.50;99.90;;;;;;500723;237;29351;-81
2023/07/15 04:28:25;;;;;;;3.73;2.50;;;20.60;99.90;;;;;;500696;237;28805;-81
2023/07/15 04:30:27;;;;;;;4.37;3.10;;;20.70;99.90;;;;;;500717;237;28957;-81
2023/07/15 04:32:28;;;;;;;3.20;2.73;;;20.80;99.90;;;;;;500673;237;28858;-80
2023/07/15 04:34:29;;;;;;;2.70;2.47;;;20.90;99.90;;;;;;500677;237;28809;-83
2023/07/15 04:36:31;;;;;;;2.73;2.53;;;21.00;99.90;;;;;;500716;237;28798;-81
2023/07/15 04:38:32;;;;;;;2.93;2.73;;;21.10;99.90;;;;;;500713;237;28813;-80
2023/07/15 04:40:33;;;;;;;2.40;2.20;;;21.20;99.90;;;;;;500726;237;28884;-82
2023/07/15 04:42:34;;;;;;;2.30;2.10;;;21.30;99.90;;;;;;500711;237;28825;-79
2023/07/15 04:44:36;;;;;;;2.70;2.50;;;21.40;99.90;;;;;;500663;237;29244;-82
2023/07/15 04:46:37;;;;;;;3.00;2.37;;;21.60;99.90;;;;;;500729;237;29400;-81
2023/07/15 04:48:38;;;;;;;3.93;2.30;;;21.70;99.90;;;;;;500708;237;29269;-80
2023/07/15 04:50:40;;;;;;;2.70;2.50;;;21.80;99.90;;;;;;500705;237;29299;-82
2023/07/15 04:52:40;;;;;;;3.77;2.60;;;21.80;99.90;;;;;;500675;237;28798;-80
2023/07/15 04:54:42;;;;;;;2.53;2.33;;;21.90;99.90;;;;;;500707;237;28852;-83
2023/07/15 04:56:43;;;;;;;3.77;2.60;;;21.80;99.90;;;;;;500718;237;28794;-80
2023/07/15 04:58:44;;;;;;;3.10;2.77;;;21.80;99.90;;;;;;500747;237;28791;-80
2023/07/15 05:00:46;;;;;;;3.20;2.50;;;21.80;99.90;;;;;;500717;237;28769;-81
2023/07/15 05:02:49;;;;;;;3.73;2.30;;;21.80;99.90;;;;;;500696;237;28811;-81
2023/07/15 05:04:48;;;;;;;3.53;2.53;;;21.80;99.90;;;;;;500720;237;28774;-82
2023/07/15 05:06:50;;;;;;;3.30;3.00;;;21.80;99.90;;;;;;500712;237;28917;-81
2023/07/15 05:08:51;;;;;;;2.93;2.60;;;21.90;99.90;;;;;;500762;237;28890;-81
2023/07/15 05:10:52;;;;;;;3.37;2.80;;;22.00;99.90;;;;;;500732;237;29210;-82
2023/07/15 05:12:53;;;;;;;3.70;2.40;;;22.10;99.90;;;;;;500783;237;29287;-81
2023/07/15 05:14:54;;;;;;;2.70;2.50;;;22.10;99.90;;;;;;500704;237;30018;-81
2023/07/15 05:16:55;;;;;;;3.70;2.50;;;22.10;99.90;;;;;;500726;237;28805;-80
2023/07/15 05:18:57;;;;;;;4.43;2.40;;;22.10;99.90;;;;;;500719;237;28791;-80
2023/07/15 05:20:58;;;;;;;2.63;2.43;;;22.10;99.90;;;;;;500707;237;28754;-81
2023/07/15 05:22:59;;;;;;;6.63;2.37;;;22.10;99.90;;;;;;500712;237;28838;-81
2023/07/15 05:25:00;;;;;;;4.60;2.50;;;22.20;99.90;;;;;;500747;237;28876;-82
2023/07/15 05:27:02;;;;;;;2.90;2.70;;;22.20;99.90;;;;;;500758;237;28786;-81
2023/07/15 05:29:03;;;;;;;3.13;2.10;;;22.20;99.90;;;;;;500733;237;28905;-81
2023/07/15 05:31:04;;;;;;;2.60;2.40;;;22.20;99.90;;;;;;500692;237;28844;-81
2023/07/15 05:33:06;;;;;;;3.20;2.63;;;22.20;99.90;;;;;;500666;237;28851;-80
2023/07/15 05:35:07;;;;;;;2.70;2.50;;;22.20;99.90;;;;;;500684;237;29317;-82
2023/07/15 05:37:08;;;;;;;2.93;2.73;;;22.30;99.90;;;;;;500723;237;29300;-81
2023/07/15 05:39:09;;;;;;;2.70;2.50;;;22.40;99.90;;;;;;500719;237;29368;-80
2023/07/15 05:41:14;;;;;;;4.50;2.00;;;22.40;99.90;;;;;;500703;237;28744;-81
2023/07/15 05:43:12;;;;;;;3.50;2.70;;;22.50;99.90;;;;;;500687;237;28920;-80
2023/07/15 05:45:13;;;;;;;2.90;2.23;;;22.50;99.90;;;;;;500719;237;28818;-81
2023/07/15 05:47:14;;;;;;;4.77;2.97;;;22.60;99.90;;;;;;500628;237;28823;-82
2023/07/15 05:49:16;;;;;;;3.50;2.33;;;22.70;99.90;;;;;;500701;237;28807;-79
2023/07/15 05:51:17;;;;;;;3.77;2.53;;;22.90;99.90;;;;;;500680;237;28774;-81
2023/07/15 05:53:18;;;;;;;3.03;2.30;;;23.10;99.90;;;;;;500674;237;28832;-81
2023/07/15 05:55:19;;;;;;;2.77;2.57;;;23.10;99.90;;;;;;500694;237;28860;-81
2023/07/15 05:57:21;;;;;;;2.90;2.60;;;23.20;99.90;;;;;;500693;237;28833;-80
2023/07/15 05:59:22;;;;;;;3.57;2.60;;;23.20;99.90;;;;;;500720;237;29287;-81
2023/07/15 06:01:23;;;;;;;4.20;2.63;;;23.30;99.90;;;;;;500678;237;29193;-81
2023/07/15 06:03:25;;;;;;;3.03;2.70;;;23.30;99.90;;;;;;500673;237;29369;-80
2023/07/15 06:05:26;;;;;;;3.33;2.70;;;23.40;99.90;;;;;;500679;237;29270;-80
2023/07/15 06:07:27;;;;;;;3.90;2.50;;;23.40;99.50;;;;;;500717;237;28785;-81
2023/07/15 06:09:28;;;;;;;3.40;2.80;;;23.50;99.20;;;;;;500736;237;28815;-80
2023/07/15 06:11:29;;;;;;;4.00;2.40;;;23.60;99.60;;;;;;500698;237;28798;-81
2023/07/15 06:13:31;;;;;;;9.23;2.47;;;23.60;99.30;;;;;;500680;237;28796;-80
2023/07/15 06:15:32;;;;;;;2.97;2.63;;;23.60;99.50;;;;;;500711;237;28941;-79
2023/07/15 06:17:33;;;;;;;2.77;2.57;;;23.60;99.50;;;;;;500706;237;28772;-80
2023/07/15 06:19:34;;;;;;;5.73;2.40;;;23.70;99.80;;;;;;500681;237;28791;-80
2023/07/15 06:21:36;;;;;;;3.80;2.90;;;23.70;99.30;;;;;;500722;237;28766;-81
2023/07/15 06:23:37;;;;;;;4.33;2.67;;;23.70;99.30;;;;;;500742;237;28767;-80
2023/07/15 06:25:38;;;;;;;3.00;2.70;;;23.70;99.50;;;;;;500708;237;28811;-81
2023/07/15 06:27:40;;;;;;;3.50;3.20;;;23.70;99.50;;;;;;500706;237;28867;-81
2023/07/15 06:29:41;;;;;;;3.67;2.93;;;23.70;99.50;;;;;;500684;237;28802;-81
2023/07/15 06:31:42;;;;;;;3.37;2.67;;;23.70;99.80;;;;;;500746;237;29326;-80
2023/07/15 06:33:44;;;;;;;3.87;2.50;;;23.60;99.80;;;;;;500635;237;29308;-80
2023/07/15 06:35:44;;;;;;;3.03;2.63;;;23.60;99.90;;;;;;500717;237;29273;-80
2023/07/15 06:37:46;;;;;;;2.40;2.20;;;23.50;99.90;;;;;;500722;237;28754;-80
2023/07/15 06:39:47;;;;;;;3.37;2.50;;;23.50;99.90;;;;;;500736;237;28823;-81
2023/07/15 06:41:48;;;;;;;2.97;2.40;;;23.50;99.90;;;;;;500823;237;28806;-81
2023/07/15 06:43:49;;;;;;;4.07;3.20;;;23.50;99.90;;;;;;500742;237;28886;-80
2023/07/15 06:45:51;;;;;;;2.80;2.60;;;23.60;99.90;;;;;;500725;237;28905;-79
2023/07/15 06:47:52;;;;;;;2.90;2.60;;;23.60;99.90;;;;;;500738;237;28833;-81
2023/07/15 06:49:53;;;;;;;2.70;2.40;;;23.60;99.90;;;;;;500732;237;28865;-79
2023/07/15 06:51:54;;;;;;;3.33;2.40;;;23.70;99.90;;;;;;500769;237;28943;-80
2023/07/15 06:53:56;;;;;;;4.47;3.13;;;23.80;99.90;;;;;;500742;237;28771;-80
2023/07/15 06:55:57;;;;;;;7.33;2.57;;;23.90;99.90;;;;;;500720;237;29248;-79
2023/07/15 06:57:58;;;;;;;3.80;2.60;;;23.90;99.90;;;;;;500698;237;29232;-80
2023/07/15 06:59:59;;;;;;;3.47;2.63;;;24.00;99.90;;;;;;500722;237;29317;-81
2023/07/15 07:02:01;;;;;;;2.83;2.63;;;24.10;99.90;;;;;;500774;237;28798;-79
2023/07/15 07:04:02;;;;;;;2.80;2.60;;;24.30;99.90;;;;;;500742;237;28752;-81
2023/07/15 07:06:03;;;;;;;3.97;2.43;;;24.40;99.20;;;;;;500713;237;28849;-80
2023/07/15 07:08:04;;;;;;;3.23;2.93;;;24.60;99.50;;;;;;500759;237;28759;-80
2023/07/15 07:10:06;;;;;;;3.20;2.40;;;24.70;99.00;;;;;;500749;237;28868;-80
2023/07/15 07:12:07;;;;;;;3.87;2.30;;;24.70;98.80;;;;;;500770;237;28798;-79
2023/07/15 07:14:09;;;;;;;2.60;2.40;;;24.80;98.90;;;;;;500718;237;28857;-80
2023/07/15 07:16:09;;;;;;;5.77;2.70;;;24.80;99.20;;;;;;500744;237;29174;-79
2023/07/15 07:18:11;;;;;;;3.30;2.30;;;24.80;98.50;;;;;;500732;237;28764;-78
2023/07/15 07:20:12;;;;;;;3.30;2.67;;;24.90;98.40;;;;;;500738;237;29340;-80
2023/07/15 07:22:13;;;;;;;5.67;2.80;;;24.80;98.40;;;;;;500735;237;29361;-79
2023/07/15 07:24:15;;;;;;;2.70;2.40;;;24.70;98.40;;;;;;500737;237;29326;-79
2023/07/15 07:26:16;;;;;;;2.93;2.70;;;24.60;98.80;;;;;;500682;237;28923;-80
2023/07/15 07:28:17;;;;;;;4.60;3.00;;;24.70;98.70;;;;;;500718;237;28798;-80
2023/07/15 07:30:18;;;;;;;3.00;2.53;;;24.80;98.90;;;;;;500776;237;28828;-79
2023/07/15 07:32:19;;;;;;;2.80;2.60;;;24.80;98.50;;;;;;500718;237;28830;-81
2023/07/15 07:34:21;;;;;;;3.17;2.80;;;24.80;98.60;;;;;;500726;237;28749;-79
2023/07/15 07:36:22;;;;;;;3.30;2.60;;;25.00;98.30;;;;;;500563;237;28911;-81
2023/07/15 07:38:23;;;;;;;2.73;2.53;;;25.20;98.00;;;;;;500737;237;28779;-79
2023/07/15 07:40:24;;;;;;;2.70;2.50;;;25.50;97.90;;;;;;500726;237;28758;-80
2023/07/15 07:42:26;;;;;;;4.73;2.87;;;25.70;97.50;;;;;;500735;237;28885;-79
2023/07/15 07:44:27;;;;;;;2.50;2.30;;;25.90;97.10;;;;;;500738;237;28763;-79
2023/07/15 07:46:28;;;;;;;2.63;2.43;;;26.00;97.00;;;;;;500725;237;29323;-81
2023/07/15 07:48:29;;;;;;;7.03;2.47;;;26.10;96.90;;;;;;500783;237;29388;-79
2023/07/15 07:50:31;;;;;;;4.80;3.23;;;26.10;96.30;;;;;;500783;237;29208;-78
2023/07/15 07:52:32;;;;;;;5.00;3.13;;;26.10;96.30;;;;;;500738;237;28889;-78
2023/07/15 07:54:33;;;;;;;4.50;3.10;;;26.00;96.00;;;;;;500735;237;28859;-79
2023/07/15 07:56:35;;;;;;;6.00;2.50;;;25.90;96.30;;;;;;500720;237;28809;-78
2023/07/15 07:58:36;;;;;;;3.17;2.80;;;25.90;96.50;;;;;;500765;237;28888;-78
2023/07/15 08:00:37;;;;;;;4.20;2.87;;;25.90;95.70;;;;;;500768;237;28765;-78
2023/07/15 08:02:38;;;;;;;4.80;2.73;;;26.00;95.80;;;;;;500736;237;28876;-79
2023/07/15 08:04:39;;;;;;;8.43;2.83;;;26.00;96.10;;;;;;500753;237;28802;-79
2023/07/15 08:06:41;;;;;;;6.27;2.83;;;26.00;96.30;;;;;;500734;237;28829;-77
2023/07/15 08:08:42;;;;;;;2.90;2.70;;;25.90;96.50;;;;;;500617;237;29414;-78
2023/07/15 08:10:43;;;;;;;2.90;2.70;;;25.80;96.20;;;;;;500735;237;29225;-79
2023/07/15 08:12:44;;;;;;;3.37;2.70;;;25.80;96.80;;;;;;500734;237;29423;-78
2023/07/15 08:14:46;;;;;;;7.97;3.37;;;25.70;96.70;;;;;;500675;237;29317;-78
2023/07/15 08:16:47;;;;;;;3.13;2.70;;;25.70;96.60;;;;;;500716;237;28851;-79
2023/07/15 08:18:48;;;;;;;3.37;2.90;;;25.80;96.90;;;;;;500781;237;28897;-78
2023/07/15 08:20:51;;;;;;;5.10;2.83;;;26.00;96.80;;;;;;500757;237;28794;-79
2023/07/15 08:22:51;;;;;;;2.80;2.60;;;26.20;96.30;;;;;;500736;237;28825;-78
2023/07/15 08:24:52;;;;;;;3.67;2.87;;;26.30;96.80;;;;;;500750;237;28849;-78
2023/07/15 08:26:53;;;;;;;6.40;3.00;;;26.30;96.40;;;;;;500788;237;28864;-78
2023/07/15 08:28:58;;;;;;;5.57;3.40;;;26.40;96.30;;;;;;500766;237;28799;-77
2023/07/15 08:30:56;;;;;;;7.17;2.87;;;26.40;96.40;;;;;;500787;237;28752;-78
2023/07/15 08:32:57;;;;;;;3.23;2.90;;;26.30;96.60;;;;;;500741;237;28801;-79
2023/07/15 08:34:58;;;;;;;5.57;3.00;;;26.30;97.00;;;;;;500732;237;29219;-78
2023/07/15 08:37:00;;;;;;;4.57;2.90;;;26.30;97.10;;;;;;500797;237;29320;-79
2023/07/15 08:39:01;;;;;;;4.60;3.00;;;26.50;96.80;;;;;;500832;237;29276;-78
2023/07/15 08:41:02;;;;;;;6.07;3.20;;;26.70;97.00;;;;;;500789;237;28830;-77
2023/07/15 08:43:04;;;;;;;3.33;3.03;;;26.60;96.80;;;;;;500747;237;28793;-77
2023/07/15 08:45:05;;;;;;;5.83;2.90;;;26.40;96.90;;;;;;500743;237;28803;-79
2023/07/15 08:47:06;;;;;;;6.47;3.50;;;26.10;97.50;;;;;;500766;237;28875;-77
2023/07/15 08:49:07;;;;;;;6.87;2.87;;;25.90;97.40;;;;;;500807;237;28841;-80
2023/07/15 08:51:08;;;;;;;6.80;2.50;;;25.60;97.80;;;;;;500775;237;28823;-78
2023/07/15 08:53:10;;;;;;;2.97;2.67;;;25.70;98.10;;;;;;500734;237;28875;-80
2023/07/15 08:55:11;;;;;;;4.93;2.87;;;25.70;97.60;;;;;;500574;237;28799;-79
2023/07/15 08:57:12;;;;;;;7.00;3.30;;;25.70;97.70;;;;;;500767;237;28774;-79
2023/07/15 08:59:18;;;;;;;3.37;3.07;;;25.80;97.80;;;;;;500729;237;29271;-79
2023/07/15 09:01:15;;;;;;;3.67;3.20;;;25.80;97.90;;;;;;500734;237;29224;-78
2023/07/15 09:03:16;;;;;;;6.30;3.37;;;25.80;97.80;;;;;;500747;237;29288;-79
2023/07/15 09:05:17;;;;;;;4.23;3.30;;;25.90;98.00;;;;;;500762;237;28827;-79
2023/07/15 09:07:18;;;;;;;5.97;3.10;;;25.80;97.90;;;;;;500753;237;28768;-78
2023/07/15 09:09:20;;;;;;;5.50;3.70;;;25.80;97.90;;;;;;500708;237;28874;-78
2023/07/15 09:11:21;;;;;;;6.00;3.30;;;25.80;98.20;;;;;;500715;237;28851;-79
2023/07/15 09:13:22;;;;;;;5.27;3.80;;;25.60;98.30;;;;;;500715;237;28805;-79
2023/07/15 09:15:23;;;;;;;7.47;3.13;;;25.50;98.60;;;;;;500747;237;29177;-79
2023/07/15 09:17:25;;;;;;;6.27;3.40;;;25.40;98.90;;;;;;500727;237;28877;-79
2023/07/15 09:19:28;;;;;;;5.47;3.50;;;25.40;99.00;;;;;;500737;237;28836;-80
2023/07/15 09:21:27;;;;;;;3.73;2.80;;;25.20;99.40;;;;;;500667;237;28766;-79
2023/07/15 09:23:28;;;;;;;8.03;3.50;;;25.10;99.40;;;;;;500679;237;29251;-78
2023/07/15 09:25:30;;;;;;;7.23;3.83;;;25.00;99.70;;;;;;500706;237;30210;-79
2023/07/15 09:27:31;;;;;;;5.90;4.13;;;24.80;99.90;;;;;;500658;237;29267;-79
2023/07/15 09:29:32;;;;;;;8.77;4.33;;;24.80;99.90;;;;;;500630;237;28825;-78
2023/07/15 09:31:33;;;;;;;3.50;3.20;;;24.80;99.90;;;;;;500661;237;28841;-80
2023/07/15 09:33:35;;;;;;;7.90;3.93;;;24.80;99.90;;;;;;500647;237;28825;-79
2023/07/15 09:35:36;;;;;;;8.70;4.57;;;24.70;99.90;;;;;;500700;237;28839;-80
2023/07/15 09:37:37;;;;;;;8.40;4.07;;;24.60;99.90;;;;;;500711;237;28770;-79
2023/07/15 09:39:38;;;;;;;10.53;4.50;;;24.70;99.90;;;;;;500679;237;28846;-79
2023/07/15 09:41:40;;;;;;;14.30;4.07;;;24.70;99.90;;;;;;500758;237;28924;-80
2023/07/15 09:43:41;;;;;;;6.73;3.83;;;24.80;99.90;;;;;;500710;237;28893;-80
2023/07/15 09:45:42;;;;;;;7.00;3.87;;;24.90;99.90;;;;;;500702;237;29243;-79
2023/07/15 09:47:43;;;;;;;6.30;3.40;;;25.10;99.90;;;;;;500724;237;29199;-79
2023/07/15 09:49:45;;;;;;;6.97;3.77;;;25.30;99.90;;;;;;500682;237;29299;-80
2023/07/15 09:51:46;;;;;;;10.87;3.53;;;25.30;99.90;;;;;;500681;237;29301;-80
2023/07/15 09:53:47;;;;;;;6.30;3.77;;;25.20;99.90;;;;;;500717;237;28794;-80
2023/07/15 09:55:48;;;;;;;11.13;3.87;;;25.10;99.90;;;;;;500724;237;28918;-79
2023/07/15 09:57:50;;;;;;;10.70;4.03;;;24.90;99.90;;;;;;500726;237;28795;-79
2023/07/15 09:59:51;;;;;;;7.33;4.37;;;24.70;99.90;;;;;;500696;237;28809;-80
2023/07/15 10:01:52;;;;;;;8.63;3.70;;;24.60;99.90;;;;;;500683;237;28755;-79
2023/07/15 10:03:53;;;;;;;7.13;4.00;;;24.60;99.90;;;;;;500707;237;28918;-81
2023/07/15 10:05:55;;;;;;;6.60;4.17;;;24.50;99.90;;;;;;500720;237;28808;-79
2023/07/15 10:07:56;;;;;;;8.43;4.00;;;24.50;99.90;;;;;;500727;237;28770;-81
2023/07/15 10:09:57;;;;;;;10.67;4.37;;;24.30;99.90;;;;;;500705;237;29249;-79
2023/07/15 10:11:58;;;;;;;18.33;5.13;;;24.30;99.90;;;;;;500695;237;29222;-81
2023/07/15 10:14:00;;;;;;;5.10;3.53;;;24.00;99.90;;;;;;500714;237;28888;-79
2023/07/15 10:16:01;;;;;;;11.23;4.77;;;23.90;99.90;;;;;;500876;237;28809;-80
2023/07/15 10:18:02;;;;;;;5.90;4.40;;;23.80;99.90;;;;;;501186;237;28769;-83
2023/07/15 10:20:03;;;;;;;6.37;4.47;;;23.70;99.90;;;;;;501173;237;28915;-80
2023/07/15 10:22:05;;;;;;;7.17;4.10;;;23.70;99.90;;;;;;501194;237;28925;-80
2023/07/15 10:24:06;;;;;;;6.30;3.97;;;23.80;99.90;;;;;;501375;237;28720;-82
2023/07/15 10:26:07;;;;;;;5.17;4.50;;;23.70;99.90;;;;;;501503;237;28718;-80
2023/07/15 10:28:08;;;;;;;8.33;4.90;;;23.70;99.90;;;;;;501542;237;28763;-81
2023/07/15 10:30:10;;;;;;;9.00;5.53;;;23.80;99.90;;;;;;501433;237;28799;-82